createdAt,value
2022-08-07T00:00:46.309Z,79.91
2022-08-07T00:02:37.155Z,79.60
2022-08-07T00:02:46.332Z,79.60
2022-08-07T00:03:47.430Z,79.80
2022-08-07T00:04:45.475Z,79.70
2022-08-07T00:05:45.276Z,79.70
2022-08-07T00:06:51.929Z,79.80
2022-08-07T00:07:46.253Z,80.32
2022-08-07T00:08:45.243Z,80.11
2022-08-07T00:10:04.700Z,80.32
2022-08-07T00:10:48.095Z,80.73
2022-08-07T00:11:54.476Z,80.87
2022-08-07T00:12:59.708Z,80.87
2022-08-07T00:13:46.206Z,80.76
2022-08-07T00:14:45.195Z,81.07
2022-08-07T00:15:46.774Z,80.97
2022-08-07T00:16:46.185Z,80.66
2022-08-07T00:17:45.171Z,80.80
2022-08-07T00:18:45.170Z,80.97
2022-08-07T00:20:02.619Z,80.76
2022-08-07T00:20:46.149Z,81.21
2022-08-07T00:21:55.547Z,81.38
2022-08-07T00:22:51.545Z,81.51
2022-08-07T00:23:46.133Z,81.41
2022-08-07T00:24:45.121Z,81.51
2022-08-07T00:25:45.828Z,81.48
2022-08-07T00:26:58.927Z,81.31
2022-08-07T00:27:52.136Z,81.31
2022-08-07T00:28:56.619Z,81.38
2022-08-07T00:29:46.079Z,81.17
2022-08-07T00:30:45.089Z,81.58
2022-08-07T00:32:45.549Z,81.72
2022-08-07T00:33:47.620Z,82.03
2022-08-07T00:34:45.534Z,81.93
2022-08-07T00:35:49.693Z,81.51
2022-08-07T00:36:46.613Z,81.82
2022-08-07T00:37:47.973Z,82.17
2022-08-07T00:38:46.608Z,81.93
2022-08-07T00:39:46.601Z,81.96
2022-08-07T00:40:47.587Z,81.82
2022-08-07T00:41:53.819Z,82.03
2022-08-07T00:42:47.570Z,82.03
2022-08-07T00:44:01.309Z,82.03
2022-08-07T00:44:47.547Z,82.17
2022-08-07T00:45:46.723Z,81.93
2022-08-07T00:46:46.533Z,81.76
2022-08-07T00:48:08.866Z,81.96
2022-08-07T00:48:49.995Z,82.17
2022-08-07T00:50:19.825Z,82.27
2022-08-07T00:50:51.537Z,82.78
2022-08-07T00:51:57.538Z,82.68
2022-08-07T00:52:47.707Z,82.82
2022-08-07T00:53:50.640Z,82.92
2022-08-07T00:54:47.492Z,83.03
2022-08-07T00:56:03.301Z,82.57
2022-08-07T00:56:49.797Z,83.23
2022-08-07T00:57:55.764Z,82.92
2022-08-07T00:58:49.859Z,83.13
2022-08-07T00:59:47.426Z,83.13
2022-08-07T01:00:53.923Z,83.13
2022-08-07T01:01:48.488Z,83.13
2022-08-07T01:02:46.403Z,82.92
2022-08-07T01:03:55.928Z,82.92
2022-08-07T01:04:47.391Z,82.51
2022-08-07T01:05:51.630Z,82.82
2022-08-07T01:06:47.373Z,82.41
2022-08-07T01:07:46.366Z,82.41
2022-08-07T01:08:53.775Z,82.31
2022-08-07T01:10:05.988Z,82.10
2022-08-07T01:10:47.648Z,82.31
2022-08-07T01:12:27.536Z,82.21
2022-08-07T01:12:54.078Z,82.21
2022-08-07T01:13:55.916Z,82.10
2022-08-07T01:14:47.303Z,82.17
2022-08-07T01:16:00.781Z,82.21
2022-08-07T01:16:48.105Z,82.10
2022-08-07T01:17:46.302Z,82.17
2022-08-07T01:18:46.279Z,82.10
2022-08-07T01:19:54.390Z,81.90
2022-08-07T01:20:57.219Z,82.10
2022-08-07T01:21:47.256Z,81.90
2022-08-07T01:22:47.001Z,82.31
2022-08-07T01:23:47.231Z,82.31
2022-08-07T01:24:47.484Z,82.35
2022-08-07T01:25:55.222Z,82.10
2022-08-07T01:26:47.905Z,82.14
2022-08-07T01:27:50.040Z,82.51
2022-08-07T01:28:48.360Z,82.82
2022-08-07T01:29:46.188Z,82.76
2022-08-07T01:30:47.031Z,82.51
2022-08-07T01:31:48.359Z,82.82
2022-08-07T01:32:46.171Z,82.35
2022-08-07T01:33:56.068Z,82.51
2022-08-07T01:34:49.147Z,82.35
2022-08-07T01:35:53.239Z,82.41
2022-08-07T01:36:52.735Z,82.51
2022-08-07T01:37:47.128Z,82.41
2022-08-07T01:38:46.112Z,82.41
2022-08-07T01:39:46.876Z,83.06
2022-08-07T01:40:46.094Z,82.86
2022-08-07T01:42:07.623Z,82.65
2022-08-07T01:42:57.524Z,83.17
2022-08-07T01:43:47.076Z,82.86
2022-08-07T01:44:47.867Z,83.47
2022-08-07T01:45:46.560Z,83.06
2022-08-07T01:46:46.047Z,83.37
2022-08-07T01:48:20.069Z,83.58
2022-08-07T01:48:47.599Z,83.17
2022-08-07T01:49:46.029Z,83.68
2022-08-07T01:50:46.022Z,83.68
2022-08-07T01:52:02.301Z,83.68
2022-08-07T01:52:49.385Z,83.47
2022-08-07T01:54:09.428Z,83.37
2022-08-07T01:54:46.987Z,83.37
2022-08-07T01:55:45.983Z,83.47
2022-08-07T01:56:49.362Z,83.68
2022-08-07T01:58:01.259Z,83.27
2022-08-07T01:58:46.950Z,83.47
2022-08-07T01:59:45.950Z,83.47
2022-08-07T02:00:49.994Z,83.58
2022-08-07T02:01:59.646Z,83.68
2022-08-07T02:03:19.177Z,83.78
2022-08-07T02:03:50.143Z,83.58
2022-08-07T02:04:52.584Z,83.51
2022-08-07T02:05:59.398Z,83.88
2022-08-07T02:06:46.882Z,83.68
2022-08-07T02:07:50.463Z,83.82
2022-08-07T02:08:46.863Z,84.23
2022-08-07T02:09:52.796Z,83.78
2022-08-07T02:10:48.768Z,84.23
2022-08-07T02:12:04.032Z,83.51
2022-08-07T02:12:50.073Z,84.33
2022-08-07T02:13:57.512Z,84.53
2022-08-07T02:14:46.815Z,84.27
2022-08-07T02:15:45.806Z,84.44
2022-08-07T02:16:45.802Z,84.33
2022-08-07T02:17:49.576Z,84.47
2022-08-07T02:18:47.252Z,84.44
2022-08-07T02:20:05.846Z,84.37
2022-08-07T02:20:48.706Z,84.12
2022-08-07T02:21:56.224Z,84.17
2022-08-07T02:22:46.748Z,84.47
2022-08-07T02:23:46.744Z,85.09
2022-08-07T02:24:45.748Z,84.68
2022-08-07T02:26:31.973Z,85.30
2022-08-07T02:26:46.716Z,84.47
2022-08-07T02:27:51.910Z,84.68
2022-08-07T02:28:46.700Z,84.99
2022-08-07T02:29:50.921Z,84.68
2022-08-07T02:30:46.676Z,85.09
2022-08-07T02:31:45.679Z,84.99
2022-08-07T02:33:00.581Z,84.99
2022-08-07T02:34:03.295Z,84.78
2022-08-07T02:34:48.971Z,85.30
2022-08-07T02:36:30.727Z,84.99
2022-08-07T02:36:46.628Z,85.54
2022-08-07T02:37:45.626Z,85.74
2022-08-07T02:38:50.868Z,85.60
2022-08-07T02:40:02.526Z,85.09
2022-08-07T02:40:46.785Z,84.78
2022-08-07T02:41:50.499Z,85.23
2022-08-07T02:42:46.577Z,85.39
2022-08-07T02:43:48.935Z,84.92
2022-08-07T02:44:45.775Z,85.23
2022-08-07T02:46:00.593Z,85.64
2022-08-07T02:46:52.506Z,85.23
2022-08-07T02:47:49.139Z,85.95
2022-08-07T02:48:47.055Z,85.54
2022-08-07T02:49:57.993Z,85.85
2022-08-07T02:50:46.523Z,85.64
2022-08-07T02:51:51.835Z,85.54
2022-08-07T02:52:48.702Z,86.46
2022-08-07T02:53:45.498Z,85.85
2022-08-07T02:54:45.484Z,85.74
2022-08-07T02:56:02.662Z,86.05
2022-08-07T02:56:46.466Z,85.74
2022-08-07T02:57:46.727Z,85.85
2022-08-07T02:58:47.350Z,85.95
2022-08-07T02:59:45.449Z,85.74
2022-08-07T03:00:47.525Z,86.46
2022-08-07T03:01:47.260Z,84.92
2022-08-07T03:02:54.444Z,86.25
2022-08-07T03:03:50.570Z,85.64
2022-08-07T03:04:45.398Z,86.36
2022-08-07T03:05:45.410Z,85.95
2022-08-07T03:06:45.871Z,86.25
2022-08-07T03:08:07.598Z,85.78
2022-08-07T03:08:46.367Z,85.74
2022-08-07T03:09:48.241Z,85.23
2022-08-07T03:10:47.369Z,86.50
2022-08-07T03:11:52.123Z,86.50
2022-08-07T03:12:46.335Z,85.68
2022-08-07T03:13:49.660Z,86.19
2022-08-07T03:14:48.398Z,86.19
2022-08-07T03:15:56.716Z,86.19
2022-08-07T03:16:46.300Z,86.60
2022-08-07T03:17:53.955Z,86.09
2022-08-07T03:18:46.285Z,86.50
2022-08-07T03:19:45.276Z,86.19
2022-08-07T03:20:46.285Z,86.03
2022-08-07T03:21:50.318Z,86.24
2022-08-07T03:22:50.368Z,86.91
2022-08-07T03:24:19.443Z,86.65
2022-08-07T03:24:46.232Z,86.40
2022-08-07T03:25:45.226Z,86.85
2022-08-07T03:26:51.230Z,86.75
2022-08-07T03:28:09.371Z,86.85
2022-08-07T03:28:46.204Z,86.75
2022-08-07T03:29:49.645Z,86.75
2022-08-07T03:30:46.180Z,86.95
2022-08-07T03:31:46.376Z,86.85
2022-08-07T03:32:48.994Z,86.50
2022-08-07T03:33:46.151Z,86.44
2022-08-07T03:34:47.598Z,86.44
2022-08-07T03:35:50.543Z,86.50
2022-08-07T03:36:45.136Z,86.44
2022-08-07T03:37:46.220Z,86.54
2022-08-07T03:38:46.116Z,86.33
2022-08-07T03:39:59.316Z,86.65
2022-08-07T03:40:46.217Z,86.54
2022-08-07T03:41:47.475Z,86.95
2022-08-07T03:42:45.094Z,86.54
2022-08-07T03:43:57.096Z,87.26
2022-08-07T03:44:47.098Z,87.05
2022-08-07T03:45:47.794Z,86.89
2022-08-07T03:47:10.837Z,87.05
2022-08-07T03:47:47.842Z,86.95
2022-08-07T03:49:01.973Z,87.16
2022-08-07T03:49:51.940Z,87.05
2022-08-07T03:50:55.844Z,87.05
2022-08-07T03:51:47.244Z,87.05
2022-08-07T03:52:45.007Z,87.16
2022-08-07T03:54:05.915Z,86.95
2022-08-07T03:54:54.444Z,87.16
2022-08-07T03:55:58.365Z,87.16
2022-08-07T03:57:07.089Z,86.95
2022-08-07T03:58:33.650Z,87.16
2022-08-07T03:59:09.283Z,87.05
2022-08-07T03:59:46.481Z,87.26
2022-08-07T04:00:46.480Z,86.85
2022-08-07T04:01:45.728Z,86.85
2022-08-07T04:02:47.334Z,86.85
2022-08-07T04:03:53.407Z,87.16
2022-08-07T04:04:45.905Z,86.95
2022-08-07T04:05:45.590Z,86.75
2022-08-07T04:06:44.884Z,87.16
2022-08-07T04:07:45.239Z,86.75
2022-08-07T04:08:44.871Z,86.75
2022-08-07T04:09:50.525Z,86.95
2022-08-07T04:10:54.427Z,86.85
2022-08-07T04:12:25.455Z,86.75
2022-08-07T04:12:46.470Z,86.75
2022-08-07T04:14:09.451Z,87.37
2022-08-07T04:14:47.787Z,87.26
2022-08-07T04:15:45.598Z,86.85
2022-08-07T04:16:58.338Z,86.40
2022-08-07T04:18:58.500Z,86.50
2022-08-07T04:19:01.406Z,86.19
2022-08-07T04:19:52.764Z,86.71
2022-08-07T04:20:54.603Z,86.60
2022-08-07T04:21:59.479Z,87.12
2022-08-07T04:22:53.419Z,86.81
2022-08-07T04:24:04.480Z,86.87
2022-08-07T04:24:45.746Z,86.46
2022-08-07T04:25:44.739Z,85.95
2022-08-07T04:26:44.724Z,85.54
2022-08-07T04:27:46.075Z,86.46
2022-08-07T04:28:45.710Z,85.95
2022-08-07T04:29:58.538Z,85.19
2022-08-07T04:30:56.902Z,85.60
2022-08-07T04:32:03.052Z,84.78
2022-08-07T04:32:47.872Z,84.78
2022-08-07T04:33:44.671Z,84.53
2022-08-07T04:34:44.671Z,84.44
2022-08-07T04:35:44.649Z,84.39
2022-08-07T04:36:48.691Z,83.82
2022-08-07T04:38:03.368Z,84.60
2022-08-07T04:38:46.562Z,84.50
2022-08-07T04:39:47.922Z,84.60
2022-08-07T04:40:51.887Z,84.19
2022-08-07T04:41:50.464Z,84.36
2022-08-07T04:42:45.602Z,84.15
2022-08-07T04:44:12.654Z,83.33
2022-08-07T04:45:02.723Z,82.31
2022-08-07T04:46:00.979Z,81.90
2022-08-07T04:46:59.639Z,81.56
2022-08-07T04:47:58.887Z,81.45
2022-08-07T04:48:45.556Z,80.80
2022-08-07T04:49:47.362Z,79.53
2022-08-07T04:50:52.810Z,78.38
2022-08-07T04:51:45.530Z,76.56
2022-08-07T04:52:51.237Z,76.73
2022-08-07T04:54:02.016Z,75.37
2022-08-07T04:54:50.356Z,73.57
2022-08-07T04:58:10.152Z,71.56
2022-08-07T04:58:11.027Z,72.82
2022-08-07T04:58:12.540Z,72.21
2022-08-07T05:00:12.833Z,70.14
2022-08-07T05:00:45.516Z,69.23
2022-08-07T05:01:44.443Z,67.67
2022-08-07T05:02:44.441Z,67.36
2022-08-07T05:04:07.064Z,66.93
2022-08-07T05:04:50.169Z,65.27
2022-08-07T05:05:52.155Z,65.88
2022-08-07T05:06:51.351Z,65.68
2022-08-07T05:07:45.458Z,65.01
2022-08-07T05:08:59.519Z,64.98
2022-08-07T05:09:46.970Z,63.53
2022-08-07T05:10:44.368Z,63.90
2022-08-07T05:11:57.333Z,62.18
2022-08-07T05:12:46.314Z,61.58
2022-08-07T05:14:55.529Z,61.01
2022-08-07T05:14:55.622Z,62.56
2022-08-07T05:15:45.323Z,61.52
2022-08-07T05:16:45.410Z,61.39
2022-08-07T05:17:52.203Z,60.25
2022-08-07T05:18:45.295Z,60.55
2022-08-07T05:19:45.087Z,60.52
2022-08-07T05:20:44.366Z,60.35
2022-08-07T05:22:00.093Z,60.45
2022-08-07T05:22:45.258Z,60.72
2022-08-07T05:23:44.252Z,59.05
2022-08-07T05:24:44.255Z,58.39
2022-08-07T05:26:12.899Z,57.35
2022-08-07T05:26:46.234Z,57.53
2022-08-07T05:28:02.554Z,55.66
2022-08-07T05:28:48.540Z,55.23
2022-08-07T05:29:50.985Z,53.22
2022-08-07T05:30:47.145Z,53.70
2022-08-07T05:31:47.471Z,53.80
2022-08-07T05:32:45.180Z,54.13
2022-08-07T05:34:01.090Z,54.03
2022-08-07T05:34:45.165Z,53.92
2022-08-07T05:35:44.160Z,53.60
2022-08-07T05:36:44.154Z,53.09
2022-08-07T05:37:45.139Z,53.30
2022-08-07T05:39:00.981Z,52.97
2022-08-07T05:40:13.877Z,52.57
2022-08-07T05:40:51.365Z,51.64
2022-08-07T05:42:01.194Z,52.17
2022-08-07T05:42:55.958Z,53.30
2022-08-07T05:44:08.472Z,54.33
2022-08-07T05:44:46.764Z,54.55
2022-08-07T05:45:46.499Z,55.16
2022-08-07T05:46:44.074Z,56.12
2022-08-07T05:48:01.596Z,57.03
2022-08-07T05:48:58.354Z,56.24
2022-08-07T05:49:45.043Z,56.32
2022-08-07T05:50:44.044Z,55.79
2022-08-07T05:51:46.213Z,55.66
2022-08-07T05:52:44.034Z,55.36
2022-08-07T05:54:12.611Z,55.49
2022-08-07T05:54:55.706Z,55.51
2022-08-07T05:56:02.014Z,56.12
2022-08-07T05:56:44.988Z,55.39
2022-08-07T05:57:44.873Z,55.49
2022-08-07T05:58:49.261Z,55.39
2022-08-07T05:59:55.720Z,55.39
2022-08-07T06:00:46.308Z,55.16
2022-08-07T06:01:45.004Z,54.35
2022-08-07T06:02:43.943Z,53.72
2022-08-07T06:03:56.627Z,53.72
2022-08-07T06:04:44.935Z,53.83
2022-08-07T06:05:48.895Z,53.90
2022-08-07T06:06:46.244Z,53.57
2022-08-07T06:08:12.339Z,52.74
2022-08-07T06:08:45.155Z,52.44
2022-08-07T06:09:56.594Z,52.34
2022-08-07T06:10:44.998Z,53.05
2022-08-07T06:11:43.871Z,53.02
2022-08-07T06:12:43.857Z,51.81
2022-08-07T06:14:13.174Z,51.61
2022-08-07T06:14:49.453Z,51.92
2022-08-07T06:15:45.316Z,51.61
2022-08-07T06:16:43.827Z,51.51
2022-08-07T06:17:53.383Z,51.49
2022-08-07T06:18:51.569Z,51.11
2022-08-07T06:19:57.880Z,51.84
2022-08-07T06:20:50.955Z,51.94
2022-08-07T06:22:16.971Z,53.37
2022-08-07T06:22:50.677Z,52.74
2022-08-07T06:23:46.826Z,51.81
2022-08-07T06:24:58.159Z,51.92
2022-08-07T06:25:54.095Z,52.22
2022-08-07T06:26:45.588Z,51.79
2022-08-07T06:28:00.904Z,52.01
2022-08-07T06:28:44.732Z,52.32
2022-08-07T06:29:43.721Z,53.05
2022-08-07T06:30:45.977Z,53.05
2022-08-07T06:31:50.028Z,53.57
2022-08-07T06:32:43.711Z,54.08
2022-08-07T06:33:43.694Z,54.88
2022-08-07T06:34:45.363Z,53.85
2022-08-07T06:35:45.534Z,53.85
2022-08-07T06:36:44.670Z,54.13
2022-08-07T06:37:44.755Z,53.55
2022-08-07T06:38:59.433Z,53.92
2022-08-07T06:40:17.434Z,53.72
2022-08-07T06:40:45.950Z,53.92
2022-08-07T06:42:02.477Z,52.89
2022-08-07T06:42:46.635Z,52.89
2022-08-07T06:43:46.526Z,53.32
2022-08-07T06:44:44.607Z,54.17
2022-08-07T06:45:44.836Z,55.21
2022-08-07T06:46:43.596Z,54.88
2022-08-07T06:47:44.588Z,54.98
2022-08-07T06:48:44.804Z,54.35
2022-08-07T06:49:52.116Z,54.78
2022-08-07T06:50:47.845Z,54.68
2022-08-07T06:51:49.943Z,53.55
2022-08-07T06:52:45.197Z,53.85
2022-08-07T06:55:28.773Z,53.65
2022-08-07T06:55:31.492Z,53.75
2022-08-07T06:55:53.396Z,53.09
2022-08-07T06:56:48.622Z,53.50
2022-08-07T06:57:49.930Z,53.20
2022-08-07T07:00:12.200Z,52.80
2022-08-07T07:00:12.531Z,53.00
2022-08-07T07:00:44.474Z,51.49
2022-08-07T07:01:48.662Z,51.94
2022-08-07T07:02:54.553Z,51.74
2022-08-07T07:03:48.157Z,51.74
2022-08-07T07:04:43.631Z,51.34
2022-08-07T07:06:05.453Z,51.26
2022-08-07T07:07:00.474Z,50.96
2022-08-07T07:07:59.816Z,51.06
2022-08-07T07:08:46.656Z,51.59
2022-08-07T07:09:43.409Z,51.39
2022-08-07T07:10:47.386Z,51.92
2022-08-07T07:12:08.867Z,51.59
2022-08-07T07:12:48.935Z,51.56
2022-08-07T07:13:58.654Z,51.04
2022-08-07T07:14:44.363Z,51.24
2022-08-07T07:15:43.426Z,50.42
2022-08-07T07:16:49.749Z,50.62
2022-08-07T07:17:45.443Z,50.63
2022-08-07T07:18:48.190Z,50.76
2022-08-07T07:19:57.068Z,51.46
2022-08-07T07:20:44.380Z,51.74
2022-08-07T07:22:05.039Z,50.66
2022-08-07T07:24:05.386Z,51.37
2022-08-07T07:24:08.570Z,51.67
2022-08-07T07:24:57.061Z,51.26
2022-08-07T07:26:33.003Z,50.76
2022-08-07T07:26:51.792Z,51.09
2022-08-07T07:28:02.212Z,51.37
2022-08-07T07:29:39.180Z,51.26
2022-08-07T07:30:08.772Z,50.76
2022-08-07T07:30:44.240Z,51.06
2022-08-07T07:31:44.527Z,51.37
2022-08-07T07:32:43.221Z,51.54
2022-08-07T07:33:43.222Z,50.84
2022-08-07T07:34:44.219Z,50.81
2022-08-07T07:35:44.036Z,50.44
2022-08-07T07:36:44.188Z,51.04
2022-08-07T07:37:45.497Z,50.94
2022-08-07T07:38:46.143Z,50.86
2022-08-07T07:39:52.262Z,51.29
2022-08-07T07:40:44.193Z,51.67
2022-08-07T07:41:50.816Z,50.86
2022-08-07T07:42:47.088Z,51.06
2022-08-07T07:43:47.796Z,50.66
2022-08-07T07:44:45.045Z,51.46
2022-08-07T07:46:38.022Z,51.46
2022-08-07T07:46:55.640Z,51.14
2022-08-07T07:47:52.720Z,49.71
2022-08-07T07:48:45.526Z,48.49
2022-08-07T07:50:34.944Z,48.21
2022-08-07T07:50:44.081Z,49.41
2022-08-07T07:51:58.270Z,49.49
2022-08-07T07:52:44.046Z,49.07
2022-08-07T07:53:52.035Z,48.79
2022-08-07T07:54:50.839Z,48.49
2022-08-07T07:55:45.734Z,48.57
2022-08-07T07:56:44.041Z,48.58
2022-08-07T07:57:52.223Z,48.76
2022-08-07T07:58:44.004Z,48.74
2022-08-07T07:59:52.574Z,47.76
2022-08-07T08:00:47.803Z,48.66
2022-08-07T08:02:02.379Z,48.34
2022-08-07T08:03:05.799Z,47.26
2022-08-07T08:04:10.990Z,48.34
2022-08-07T08:04:44.097Z,48.24
2022-08-07T08:05:54.833Z,47.61
2022-08-07T08:06:52.189Z,47.49
2022-08-07T08:07:59.976Z,46.87
2022-08-07T08:08:44.923Z,46.75
2022-08-07T08:09:52.343Z,45.45
2022-08-07T08:10:43.909Z,45.75
2022-08-07T08:11:59.834Z,45.75
2022-08-07T08:12:52.252Z,45.55
2022-08-07T08:13:54.130Z,45.35
2022-08-07T08:14:43.879Z,45.47
2022-08-07T08:15:58.046Z,45.95
2022-08-07T08:16:50.474Z,45.85
2022-08-07T08:17:57.097Z,45.75
2022-08-07T08:18:45.154Z,45.55
2022-08-07T08:20:17.276Z,45.97
2022-08-07T08:20:43.826Z,46.27
2022-08-07T08:22:00.554Z,46.50
2022-08-07T08:22:54.107Z,47.30
2022-08-07T08:23:43.821Z,46.67
2022-08-07T08:24:45.305Z,46.75
2022-08-07T08:25:49.455Z,46.03
2022-08-07T08:26:43.807Z,45.75
2022-08-07T08:27:43.975Z,45.85
2022-08-07T08:28:45.109Z,46.67
2022-08-07T08:29:54.201Z,46.67
2022-08-07T08:30:50.888Z,46.69
2022-08-07T08:31:59.038Z,47.37
2022-08-07T08:32:48.443Z,46.77
2022-08-07T08:33:48.972Z,45.83
2022-08-07T08:34:44.957Z,45.55
2022-08-07T08:35:47.103Z,45.75
2022-08-07T08:36:46.298Z,45.75
2022-08-07T08:38:01.579Z,46.23
2022-08-07T08:38:44.626Z,45.90
2022-08-07T08:39:55.084Z,45.21
2022-08-07T08:40:43.908Z,44.41
2022-08-07T08:41:58.234Z,44.63
2022-08-07T08:42:43.660Z,44.43
2022-08-07T08:43:43.327Z,45.21
2022-08-07T08:44:44.485Z,44.51
2022-08-07T08:45:59.261Z,44.43
2022-08-07T08:46:44.948Z,44.33
2022-08-07T08:47:52.784Z,44.63
2022-08-07T08:48:43.613Z,45.45
2022-08-07T08:49:46.833Z,44.65
2022-08-07T08:50:43.597Z,45.07
2022-08-07T08:52:13.119Z,45.05
2022-08-07T08:52:54.205Z,45.43
2022-08-07T08:53:43.567Z,45.05
2022-08-07T08:54:42.572Z,44.35
2022-08-07T08:55:55.309Z,43.25
2022-08-07T08:56:47.517Z,43.65
2022-08-07T08:57:42.540Z,43.55
2022-08-07T08:58:42.531Z,43.93
2022-08-07T08:59:48.274Z,43.61
2022-08-07T09:00:48.622Z,43.41
2022-08-07T09:01:46.609Z,42.89
2022-08-07T09:02:42.634Z,42.91
2022-08-07T09:03:48.094Z,43.01
2022-08-07T09:04:43.490Z,43.81
2022-08-07T09:05:42.488Z,43.81
2022-08-07T09:06:42.884Z,43.21
2022-08-07T09:07:46.272Z,43.81
2022-08-07T09:08:43.455Z,43.21
2022-08-07T09:09:42.449Z,42.49
2022-08-07T09:10:44.329Z,42.71
2022-08-07T09:11:51.238Z,43.29
2022-08-07T09:12:53.563Z,42.69
2022-08-07T09:13:42.419Z,42.29
2022-08-07T09:14:42.414Z,42.37
2022-08-07T09:16:22.033Z,42.37
2022-08-07T09:16:43.409Z,41.85
2022-08-07T09:17:58.941Z,41.75
2022-08-07T09:18:47.374Z,41.88
2022-08-07T09:19:52.214Z,41.67
2022-08-07T09:20:43.372Z,40.48
2022-08-07T09:22:22.398Z,40.06
2022-08-07T09:24:32.306Z,40.14
2022-08-07T09:24:33.845Z,39.74
2022-08-07T09:24:59.428Z,40.16
2022-08-07T09:25:43.340Z,40.66
2022-08-07T09:26:47.807Z,40.44
2022-08-07T09:28:00.436Z,40.46
2022-08-07T09:30:06.239Z,41.00
2022-08-07T09:30:06.370Z,40.38
2022-08-07T09:30:46.166Z,40.59
2022-08-07T09:31:49.139Z,40.70
2022-08-07T09:32:43.290Z,40.22
2022-08-07T09:33:56.817Z,40.80
2022-08-07T09:34:43.310Z,41.31
2022-08-07T09:36:03.282Z,41.61
2022-08-07T09:36:46.818Z,41.71
2022-08-07T09:37:48.194Z,42.32
2022-08-07T09:38:43.223Z,41.44
2022-08-07T09:39:54.794Z,40.94
2022-08-07T09:40:43.205Z,41.96
2022-08-07T09:41:43.211Z,42.25
2022-08-07T09:42:44.090Z,42.33
2022-08-07T09:44:05.725Z,41.24
2022-08-07T09:44:52.198Z,40.94
2022-08-07T09:47:25.813Z,41.02
2022-08-07T09:47:51.623Z,40.81
2022-08-07T09:47:59.170Z,40.42
2022-08-07T09:49:02.567Z,40.42
2022-08-07T09:49:59.553Z,40.52
2022-08-07T09:50:43.132Z,40.23
2022-08-07T09:52:16.305Z,40.23
2022-08-07T09:52:43.113Z,40.44
2022-08-07T09:53:50.108Z,40.32
2022-08-07T09:54:43.114Z,39.92
2022-08-07T09:56:03.221Z,40.01
2022-08-07T09:56:43.084Z,39.60
2022-08-07T09:57:46.622Z,39.90
2022-08-07T09:58:42.421Z,39.20
2022-08-07T09:59:46.105Z,39.42
2022-08-07T10:00:42.059Z,39.32
2022-08-07T10:01:51.275Z,38.90
2022-08-07T10:02:53.666Z,39.50
2022-08-07T10:04:06.535Z,39.00
2022-08-07T10:04:46.063Z,39.32
2022-08-07T10:06:00.748Z,39.12
2022-08-07T10:06:49.107Z,39.84
2022-08-07T10:07:53.755Z,39.15
2022-08-07T10:08:42.994Z,38.96
2022-08-07T10:09:59.308Z,38.96
2022-08-07T10:11:16.297Z,40.36
2022-08-07T10:12:01.860Z,40.47
2022-08-07T10:12:52.785Z,40.45
2022-08-07T10:14:00.243Z,40.75
2022-08-07T10:14:43.675Z,40.86
2022-08-07T10:15:44.675Z,39.95
2022-08-07T10:16:41.927Z,39.76
2022-08-07T10:18:00.975Z,38.76
2022-08-07T10:18:42.917Z,39.36
2022-08-07T10:19:41.993Z,39.95
2022-08-07T10:20:41.892Z,38.74
2022-08-07T10:22:12.418Z,39.54
2022-08-07T10:22:43.226Z,39.64
2022-08-07T10:24:05.920Z,39.34
2022-08-07T10:24:42.871Z,39.36
2022-08-07T10:25:43.077Z,39.14
2022-08-07T10:26:41.856Z,39.24
2022-08-07T10:27:46.228Z,38.44
2022-08-07T10:28:43.437Z,38.32
2022-08-07T10:29:45.905Z,37.82
2022-08-07T10:30:43.827Z,38.42
2022-08-07T10:31:42.994Z,37.62
2022-08-07T10:32:52.849Z,37.82
2022-08-07T10:34:05.914Z,37.40
2022-08-07T10:34:45.259Z,37.92
2022-08-07T10:35:56.601Z,38.14
2022-08-07T10:36:42.809Z,37.74
2022-08-07T10:38:00.197Z,38.94
2022-08-07T10:38:48.845Z,38.66
2022-08-07T10:40:03.350Z,37.64
2022-08-07T10:40:42.753Z,38.66
2022-08-07T10:41:51.261Z,38.46
2022-08-07T10:42:42.727Z,38.26
2022-08-07T10:43:41.733Z,38.26
2022-08-07T10:44:45.373Z,37.74
2022-08-07T10:45:44.420Z,38.24
2022-08-07T10:46:41.707Z,37.52
2022-08-07T10:47:51.432Z,37.92
2022-08-07T10:48:44.163Z,36.82
2022-08-07T10:49:41.682Z,38.31
2022-08-07T10:50:44.900Z,37.51
2022-08-07T10:52:01.909Z,37.01
2022-08-07T10:52:42.785Z,37.52
2022-08-07T10:53:44.693Z,37.02
2022-08-07T10:54:42.200Z,37.42
2022-08-07T10:55:42.638Z,37.52
2022-08-07T10:56:41.912Z,37.52
2022-08-07T10:57:41.631Z,37.32
2022-08-07T10:58:41.654Z,37.23
2022-08-07T10:59:45.381Z,37.23
2022-08-07T11:00:43.300Z,36.52
2022-08-07T11:01:51.999Z,36.74
2022-08-07T11:02:42.620Z,37.12
2022-08-07T11:03:52.740Z,37.52
2022-08-07T11:04:42.566Z,36.51
2022-08-07T11:05:50.982Z,37.21
2022-08-07T11:06:44.529Z,36.80
2022-08-07T11:08:00.297Z,36.09
2022-08-07T11:08:42.539Z,36.59
2022-08-07T11:10:09.318Z,36.80
2022-08-07T11:10:42.522Z,36.71
2022-08-07T11:11:42.773Z,35.51
2022-08-07T11:12:43.172Z,36.80
2022-08-07T11:14:44.339Z,36.11
2022-08-07T11:14:59.766Z,36.32
2022-08-07T11:15:42.504Z,36.52
2022-08-07T11:16:42.479Z,36.32
2022-08-07T11:17:44.324Z,36.72
2022-08-07T11:18:41.466Z,36.43
2022-08-07T11:19:41.489Z,36.41
2022-08-07T11:20:41.451Z,36.51
2022-08-07T11:21:43.094Z,35.81
2022-08-07T11:22:45.651Z,35.79
2022-08-07T11:23:41.427Z,35.49
2022-08-07T11:24:45.512Z,35.69
2022-08-07T11:25:48.265Z,36.39
2022-08-07T11:26:48.170Z,35.69
2022-08-07T11:28:03.036Z,35.59
2022-08-07T11:28:42.469Z,35.69
2022-08-07T11:29:47.254Z,35.41
2022-08-07T11:30:42.505Z,35.91
2022-08-07T11:31:41.363Z,36.11
2022-08-07T11:32:41.355Z,35.51
2022-08-07T11:33:54.385Z,35.49
2022-08-07T11:34:42.544Z,35.51
2022-08-07T11:35:59.855Z,35.49
2022-08-07T11:36:42.340Z,35.68
2022-08-07T11:38:10.278Z,35.08
2022-08-07T11:38:42.307Z,34.98
2022-08-07T11:40:00.138Z,34.68
2022-08-07T11:40:42.291Z,34.78
2022-08-07T11:42:01.922Z,34.78
2022-08-07T11:42:42.271Z,35.29
2022-08-07T11:44:11.346Z,35.28
2022-08-07T11:44:52.296Z,35.08
2022-08-07T11:45:53.450Z,35.08
2022-08-07T11:46:42.241Z,35.26
2022-08-07T11:47:58.912Z,34.88
2022-08-07T11:48:53.824Z,34.76
2022-08-07T11:50:11.313Z,35.06
2022-08-07T11:50:44.310Z,35.36
2022-08-07T11:51:45.054Z,34.96
2022-08-07T11:52:41.207Z,35.06
2022-08-07T11:53:43.232Z,34.76
2022-08-07T11:54:42.190Z,35.06
2022-08-07T11:56:15.705Z,34.36
2022-08-07T11:56:42.169Z,34.48
2022-08-07T11:58:00.690Z,34.86
2022-08-07T11:58:42.148Z,35.28
2022-08-07T12:00:12.127Z,35.17
2022-08-07T12:00:42.137Z,34.78
2022-08-07T12:02:00.060Z,34.76
2022-08-07T12:02:42.148Z,34.27
2022-08-07T12:03:45.319Z,34.76
2022-08-07T12:04:41.105Z,35.36
2022-08-07T12:05:49.110Z,35.06
2022-08-07T12:06:50.837Z,33.67
2022-08-07T12:07:42.233Z,34.27
2022-08-07T12:08:42.533Z,33.67
2022-08-07T12:09:41.103Z,34.46
2022-08-07T12:10:41.949Z,34.16
2022-08-07T12:11:43.385Z,34.96
2022-08-07T12:12:42.075Z,34.96
2022-08-07T12:13:44.919Z,34.96
2022-08-07T12:14:43.019Z,34.66
2022-08-07T12:16:05.795Z,34.76
2022-08-07T12:16:42.028Z,35.16
2022-08-07T12:17:55.895Z,35.26
2022-08-07T12:18:45.583Z,35.16
2022-08-07T12:20:05.390Z,34.66
2022-08-07T12:20:41.987Z,35.28
2022-08-07T12:22:36.053Z,35.06
2022-08-07T12:22:47.288Z,35.38
2022-08-07T12:24:06.651Z,35.06
2022-08-07T12:24:41.947Z,35.56
2022-08-07T12:26:03.310Z,35.24
2022-08-07T12:26:46.611Z,34.94
2022-08-07T12:28:08.924Z,35.54
2022-08-07T12:28:44.949Z,34.84
2022-08-07T12:29:40.906Z,35.22
2022-08-07T12:30:40.891Z,34.73
2022-08-07T12:32:01.852Z,33.93
2022-08-07T12:32:41.894Z,35.03
2022-08-07T12:33:56.581Z,34.25
2022-08-07T12:34:42.103Z,34.55
2022-08-07T12:35:41.861Z,34.25
2022-08-07T12:36:42.259Z,34.64
2022-08-07T12:38:10.638Z,35.05
2022-08-07T12:38:43.394Z,33.85
2022-08-07T12:39:42.251Z,34.55
2022-08-07T12:40:50.164Z,34.94
2022-08-07T12:41:51.763Z,35.26
2022-08-07T12:42:41.790Z,34.66
2022-08-07T12:44:01.533Z,35.08
2022-08-07T12:44:44.884Z,34.66
2022-08-07T12:45:40.770Z,34.56
2022-08-07T12:46:40.753Z,34.66
2022-08-07T12:47:40.774Z,34.96
2022-08-07T12:48:41.433Z,34.96
2022-08-07T12:49:48.756Z,34.86
2022-08-07T12:50:48.732Z,34.66
2022-08-07T12:51:51.291Z,35.16
2022-08-07T12:52:41.719Z,34.86
2022-08-07T12:54:03.036Z,35.56
2022-08-07T12:54:41.692Z,34.86